Latrobe, Pennsylvania
Current Conditions -  °F | °C
As of 3:27 PM on Monday 26 Jan 2015 (Local Time) from KLBE Reporting Station
Light Snow Light Snow  
Wind Chill: 26°   Ceiling: 1400
Heat Index: 32°   Visibility: 1.5mi
Dew Point: 28°   Wind: 7mph
Humidity: 87%   Direction: 50°NE
Pressure: 29.69"   Gusts: NA
Location:  40.32°N, 79.38°W
Report Text: KLBE 262027Z 05006KT 1 1/2SM -SN BKN014 OVC030 00/M02 A2969
Loading
Personal Weather Stations






























Interactive Weather Map New forecast layout! Learn more

10-Day Weather Forecast

Advertisements
Track Severe Weather on mobile